Time;durP1;ratioP1;P1;durP2;ratioP2;P2;SDS_P1;SDS_P2;PMS_P1;PMS_P2;Temp;Humidity;BMP_temperature;BMP_pressure;BME280_temperature;BME280_humidity;BME280_pressure;Samples;Min_cycle;Max_cycle;Signal;HPM_P1;HPM_P2
2023/05/10 00:00:51;;;;;;;1999.90;999.90;;;13.90;99.90;;;;;;4995950;28;20038;-74
2023/05/10 00:03:17;;;;;;;1999.90;999.90;;;13.90;99.90;;;;;;4996088;28;20039;-74
2023/05/10 00:05:42;;;;;;;1999.90;999.90;;;13.70;99.90;;;;;;4994413;28;20034;-74
2023/05/10 00:08:08;;;;;;;1999.90;999.90;;;13.50;99.90;;;;;;4996087;28;20081;-75
2023/05/10 00:10:34;;;;;;;1999.90;999.90;;;13.50;99.90;;;;;;4996181;28;20047;-75
2023/05/10 00:12:59;;;;;;;1999.90;999.90;;;13.40;99.90;;;;;;5015664;28;20540;-75
2023/05/10 00:15:25;;;;;;;1999.90;999.90;;;13.30;99.90;;;;;;5013998;28;20046;-75
2023/05/10 00:17:50;;;;;;;1999.90;999.90;;;13.30;99.90;;;;;;5014540;28;20041;-75
2023/05/10 00:20:16;;;;;;;1999.90;999.90;;;13.20;99.90;;;;;;5015146;28;20081;-75
2023/05/10 00:22:41;;;;;;;1999.90;999.90;;;13.20;99.90;;;;;;5015442;28;20113;-75
2023/05/10 00:25:08;;;;;;;1999.90;999.90;;;13.20;99.90;;;;;;5015788;28;20038;-75
2023/05/10 00:27:33;;;;;;;1999.90;999.90;;;13.20;99.90;;;;;;5013904;28;20035;-75
2023/05/10 00:29:59;;;;;;;1999.90;999.90;;;13.20;99.90;;;;;;5015867;28;20046;-75
2023/05/10 00:32:24;;;;;;;1999.90;999.90;;;13.20;99.90;;;;;;5000930;28;20038;-75
2023/05/10 00:34:50;;;;;;;1999.90;999.90;;;13.20;99.90;;;;;;5015119;28;20101;-75
2023/05/10 00:37:16;;;;;;;1999.90;999.90;;;13.10;99.90;;;;;;5015447;28;20030;-74
2023/05/10 00:39:41;;;;;;;1999.90;999.90;;;13.10;99.90;;;;;;5016151;28;20038;-75
2023/05/10 00:42:07;;;;;;;1999.90;999.90;;;13.20;99.90;;;;;;5001158;28;20524;-74
2023/05/10 00:44:32;;;;;;;1999.90;999.90;;;13.20;99.90;;;;;;4997330;28;20049;-75
2023/05/10 00:46:59;;;;;;;1999.90;999.90;;;13.20;99.90;;;;;;5009724;28;20054;-75
2023/05/10 00:49:25;;;;;;;1999.90;999.90;;;13.20;99.90;;;;;;4997840;28;20031;-75
2023/05/10 00:51:50;;;;;;;1999.90;999.90;;;13.20;99.90;;;;;;5009211;28;20039;-74
2023/05/10 00:54:16;;;;;;;1999.90;999.90;;;13.30;99.90;;;;;;5030273;28;20034;-75
2023/05/10 00:56:48;;;;;;;1999.90;999.90;;;13.20;99.90;;;;;;5030069;28;20035;-75
2023/05/10 00:59:14;;;;;;;1999.90;999.90;;;13.30;99.90;;;;;;5030491;28;20526;-75
2023/05/10 01:01:40;;;;;;;1999.90;999.90;;;13.20;99.90;;;;;;5015115;28;20121;-75
2023/05/10 01:04:06;;;;;;;1999.90;999.90;;;13.20;99.90;;;;;;5014772;28;20030;-74
2023/05/10 01:06:32;;;;;;;1999.90;999.90;;;13.20;99.90;;;;;;5015138;28;20058;-74
2023/05/10 01:08:57;;;;;;;1999.90;999.90;;;13.10;99.90;;;;;;5030392;28;20042;-75
2023/05/10 01:11:23;;;;;;;1999.90;999.90;;;13.10;99.90;;;;;;5004267;28;20054;-75
2023/05/10 01:13:56;;;;;;;1999.90;999.90;;;13.10;99.90;;;;;;5008833;28;20038;-75
2023/05/10 01:16:23;;;;;;;1999.90;999.90;;;13.10;99.90;;;;;;5001051;28;20035;-75
2023/05/10 01:18:49;;;;;;;1999.90;999.90;;;13.00;99.90;;;;;;4993698;28;20035;-75
2023/05/10 01:21:28;;;;;;;1999.90;999.90;;;13.00;99.90;;;;;;5003082;28;20529;-75
2023/05/10 01:24:14;;;;;;;1999.90;999.90;;;12.90;99.90;;;;;;5015375;28;20503;-75
2023/05/10 01:26:59;;;;;;;1999.90;999.90;;;12.90;99.90;;;;;;5012906;28;20118;-75
2023/05/10 01:30:02;;;;;;;1999.90;999.90;;;12.90;99.90;;;;;;4998475;28;20046;-76
2023/05/10 01:32:55;;;;;;;1999.90;999.90;;;12.80;99.90;;;;;;5019373;28;20046;-75
2023/05/10 01:36:03;;;;;;;1999.90;999.90;;;12.80;99.90;;;;;;5014235;28;20041;-75
2023/05/10 01:38:51;;;;;;;1999.90;999.90;;;12.80;99.90;;;;;;4998166;28;20031;-75
2023/05/10 01:41:18;;;;;;;1999.90;999.90;;;12.70;99.90;;;;;;5000217;28;20203;-75
2023/05/10 01:43:55;;;;;;;1999.90;999.90;;;12.70;99.90;;;;;;4999752;28;20035;-75
2023/05/10 01:46:32;;;;;;;1999.90;999.90;;;12.70;99.90;;;;;;5013222;28;20050;-75
2023/05/10 01:49:02;;;;;;;1999.90;999.90;;;12.70;99.90;;;;;;5018616;28;20045;-75
2023/05/10 01:51:33;;;;;;;1999.90;999.90;;;12.70;99.90;;;;;;5020256;28;20047;-76
2023/05/10 01:54:02;;;;;;;1999.90;999.90;;;12.70;99.90;;;;;;5016723;28;20035;-76
2023/05/10 01:56:30;;;;;;;1999.90;999.90;;;12.70;99.90;;;;;;5000707;28;20496;-75
2023/05/10 01:58:57;;;;;;;1999.90;999.90;;;12.70;99.90;;;;;;5001065;28;20477;-75
2023/05/10 02:01:25;;;;;;;1999.90;999.90;;;12.70;99.90;;;;;;5005553;28;20125;-76
2023/05/10 02:03:53;;;;;;;1999.90;999.90;;;12.70;99.90;;;;;;5019701;28;20478;-75
2023/05/10 02:06:21;;;;;;;1999.90;999.90;;;12.60;99.90;;;;;;5020434;28;20129;-76
2023/05/10 02:08:49;;;;;;;1999.90;999.90;;;12.60;99.90;;;;;;5019596;28;20034;-75
2023/05/10 02:11:14;;;;;;;1999.90;999.90;;;12.60;99.90;;;;;;5012732;28;20043;-75
2023/05/10 02:13:41;;;;;;;1999.90;999.90;;;12.60;99.90;;;;;;4999795;28;20037;-76
2023/05/10 02:16:08;;;;;;;1999.90;999.90;;;12.60;99.90;;;;;;5008583;28;20031;-75
2023/05/10 02:18:35;;;;;;;1999.90;999.90;;;12.50;99.90;;;;;;5019780;28;20045;-75
2023/05/10 02:21:02;;;;;;;1999.90;999.90;;;12.60;99.90;;;;;;5015547;28;20043;-76
2023/05/10 02:23:29;;;;;;;1999.90;999.90;;;12.50;99.90;;;;;;4998876;28;20030;-75
2023/05/10 02:25:56;;;;;;;1999.90;999.90;;;12.50;99.90;;;;;;4999572;28;20035;-75
2023/05/10 02:28:24;;;;;;;1999.90;999.90;;;12.60;99.90;;;;;;4998797;28;20045;-74
2023/05/10 02:30:51;;;;;;;1999.90;999.90;;;12.50;99.90;;;;;;5001146;28;20045;-75
2023/05/10 02:33:18;;;;;;;1999.90;999.90;;;12.50;99.90;;;;;;5018980;28;20066;-75
2023/05/10 02:35:44;;;;;;;1999.90;999.90;;;12.50;99.90;;;;;;5017983;28;20034;-75
2023/05/10 02:38:11;;;;;;;1999.90;999.90;;;12.50;99.90;;;;;;5018784;28;20092;-75
2023/05/10 02:40:37;;;;;;;1999.90;999.90;;;12.50;99.90;;;;;;5017480;28;20034;-75
2023/05/10 02:43:05;;;;;;;1999.90;999.90;;;12.50;99.90;;;;;;5013639;28;20066;-75
2023/05/10 02:45:32;;;;;;;1999.90;999.90;;;12.50;99.90;;;;;;5001355;28;20027;-75
2023/05/10 02:47:58;;;;;;;1999.90;999.90;;;12.60;99.90;;;;;;5016749;28;20034;-76
2023/05/10 02:50:27;;;;;;;1999.90;999.90;;;12.60;99.90;;;;;;5018241;28;20511;-75
2023/05/10 02:52:58;;;;;;;1999.90;999.90;;;12.50;99.90;;;;;;5000049;28;20476;-75
2023/05/10 02:55:32;;;;;;;1999.90;999.90;;;12.60;99.90;;;;;;4997702;28;20420;-76
2023/05/10 02:58:00;;;;;;;1999.90;999.90;;;12.60;99.90;;;;;;4996912;28;20042;-75
2023/05/10 03:00:26;;;;;;;1999.90;999.90;;;12.60;99.90;;;;;;4996972;28;20078;-75
2023/05/10 03:02:52;;;;;;;1999.90;999.90;;;12.60;99.90;;;;;;4997910;28;20073;-76
2023/05/10 03:05:18;;;;;;;1999.90;999.90;;;12.60;99.90;;;;;;5001396;28;20045;-76
2023/05/10 03:07:44;;;;;;;1999.90;999.90;;;12.50;99.90;;;;;;5016717;28;20038;-76
2023/05/10 03:10:10;;;;;;;1999.90;999.90;;;12.40;99.90;;;;;;5017478;28;20042;-75
2023/05/10 03:12:57;;;;;;;1999.90;999.90;;;12.50;99.90;;;;;;5017608;28;20038;-75
2023/05/10 03:15:35;;;;;;;1999.90;999.90;;;12.50;99.90;;;;;;5017550;28;20038;-75
2023/05/10 03:18:01;;;;;;;1999.90;999.90;;;12.50;99.90;;;;;;5008625;28;20031;-75
2023/05/10 03:20:36;;;;;;;1999.90;999.90;;;12.50;99.90;;;;;;4997936;28;20167;-74
2023/05/10 03:23:14;;;;;;;1999.90;999.90;;;12.50;99.90;;;;;;4998570;28;20078;-75
2023/05/10 03:25:41;;;;;;;1999.90;999.90;;;12.50;99.90;;;;;;5013752;28;20463;-74
2023/05/10 03:28:07;;;;;;;1999.90;999.90;;;12.50;99.90;;;;;;5009516;28;20037;-75
2023/05/10 03:30:34;;;;;;;1999.90;999.90;;;12.60;99.90;;;;;;4998121;28;20047;-75
2023/05/10 03:33:07;;;;;;;1999.90;999.90;;;12.60;99.90;;;;;;5013294;28;20030;-74
2023/05/10 03:35:32;;;;;;;1999.90;999.90;;;12.60;99.90;;;;;;5024624;28;20042;-75
2023/05/10 03:37:58;;;;;;;1999.90;999.90;;;12.60;99.90;;;;;;5016116;28;20071;-75
2023/05/10 03:40:25;;;;;;;1999.90;999.90;;;12.70;99.90;;;;;;5015425;28;20045;-75
2023/05/10 03:42:51;;;;;;;1999.90;999.90;;;12.70;99.90;;;;;;5002436;28;20066;-75
2023/05/10 03:45:16;;;;;;;1999.90;999.90;;;12.70;99.90;;;;;;4996818;28;20039;-75
2023/05/10 03:47:42;;;;;;;1999.90;999.90;;;12.70;99.90;;;;;;5004806;28;20518;-75
2023/05/10 03:50:08;;;;;;;1999.90;999.90;;;12.60;99.90;;;;;;5018396;28;20053;-74
2023/05/10 03:52:33;;;;;;;1999.90;999.90;;;12.60;99.90;;;;;;5016602;28;20396;-74
2023/05/10 03:54:59;;;;;;;1999.90;999.90;;;12.60;99.90;;;;;;5006191;28;20062;-75
2023/05/10 03:57:24;;;;;;;1999.90;999.90;;;12.60;99.90;;;;;;5000425;28;20451;-75
2023/05/10 03:59:50;;;;;;;1999.90;999.90;;;12.60;99.90;;;;;;5015915;28;20038;-75
2023/05/10 04:02:15;;;;;;;1999.90;999.90;;;12.60;99.90;;;;;;5006882;28;20143;-75
2023/05/10 04:04:42;;;;;;;1999.90;999.90;;;12.60;99.90;;;;;;4995474;28;20034;-75
2023/05/10 04:07:07;;;;;;;1999.90;999.90;;;12.50;99.90;;;;;;4996096;28;20041;-75
2023/05/10 04:09:33;;;;;;;1999.90;999.90;;;12.60;99.90;;;;;;4994249;28;20492;-75
2023/05/10 04:12:00;;;;;;;1999.90;999.90;;;12.60;99.90;;;;;;5002938;28;20043;-75
2023/05/10 04:14:25;;;;;;;1999.90;999.90;;;12.60;99.90;;;;;;5031035;28;20036;-75
2023/05/10 04:16:51;;;;;;;1999.90;999.90;;;12.60;99.90;;;;;;5016460;28;20057;-75
2023/05/10 04:19:17;;;;;;;1999.90;999.90;;;12.60;99.90;;;;;;5001110;28;20047;-76
2023/05/10 04:21:42;;;;;;;1999.90;999.90;;;12.60;99.90;;;;;;5000648;28;20046;-75
2023/05/10 04:24:08;;;;;;;1999.90;999.90;;;12.60;99.90;;;;;;5015440;28;20041;-75
2023/05/10 04:26:33;;;;;;;1999.90;999.90;;;12.60;99.90;;;;;;5030419;28;20514;-75
2023/05/10 04:28:59;;;;;;;1999.90;999.90;;;12.70;99.90;;;;;;5029648;28;20568;-75
2023/05/10 04:31:24;;;;;;;1999.90;999.90;;;12.70;99.90;;;;;;5015221;28;20049;-74
2023/05/10 04:33:50;;;;;;;1999.90;999.90;;;12.70;99.90;;;;;;5015323;28;20030;-75
2023/05/10 04:36:15;;;;;;;1999.90;999.90;;;12.70;99.90;;;;;;5015470;28;20042;-75
2023/05/10 04:38:42;;;;;;;1999.90;999.90;;;12.70;99.90;;;;;;5015023;28;20378;-75
2023/05/10 04:41:09;;;;;;;1999.90;999.90;;;12.70;99.90;;;;;;5015211;28;20034;-75
2023/05/10 04:43:35;;;;;;;1999.90;999.90;;;12.70;99.90;;;;;;4997573;28;20033;-75
2023/05/10 04:46:01;;;;;;;1999.90;999.90;;;12.80;99.90;;;;;;4995333;28;20481;-74
2023/05/10 04:48:27;;;;;;;1999.90;999.90;;;12.80;99.90;;;;;;4994354;28;20030;-75
2023/05/10 04:50:52;;;;;;;1999.90;999.90;;;12.80;99.90;;;;;;4995807;28;20392;-75
2023/05/10 04:53:18;;;;;;;1999.90;999.90;;;12.80;99.90;;;;;;4995152;28;20114;-75
2023/05/10 04:55:43;;;;;;;1999.90;999.90;;;12.80;99.90;;;;;;4994901;28;20489;-75
2023/05/10 04:58:09;;;;;;;1999.90;999.90;;;12.90;99.90;;;;;;5001904;28;20045;-75
2023/05/10 05:00:35;;;;;;;1999.90;999.90;;;12.90;99.90;;;;;;5014887;28;20042;-75
2023/05/10 05:03:00;;;;;;;1999.90;999.90;;;12.90;99.90;;;;;;5015213;28;20510;-75
2023/05/10 05:05:26;;;;;;;1999.90;999.90;;;12.80;99.90;;;;;;5018502;28;20042;-75
2023/05/10 05:07:51;;;;;;;1999.90;999.90;;;12.90;99.90;;;;;;5018080;28;20046;-75
2023/05/10 05:10:17;;;;;;;1999.90;999.90;;;12.90;99.90;;;;;;5033397;28;20046;-75
2023/05/10 05:12:43;;;;;;;1999.90;999.90;;;13.00;99.90;;;;;;5018172;28;20042;-75
2023/05/10 05:15:11;;;;;;;1999.90;999.90;;;13.00;99.90;;;;;;5018219;28;20472;-75
2023/05/10 05:17:37;;;;;;;1999.90;999.90;;;13.00;99.90;;;;;;5017639;28;20508;-75
2023/05/10 05:20:03;;;;;;;1999.90;999.90;;;13.10;99.90;;;;;;5018069;28;20047;-75
2023/05/10 05:22:28;;;;;;;1999.90;999.90;;;13.10;99.90;;;;;;5018166;28;20042;-75
2023/05/10 05:24:54;;;;;;;1999.90;999.90;;;13.20;99.90;;;;;;5018347;28;20043;-75
2023/05/10 05:27:23;;;;;;;1999.90;999.90;;;13.20;99.90;;;;;;5018214;28;20040;-75
2023/05/10 05:29:52;;;;;;;1999.90;999.90;;;13.30;99.90;;;;;;5016430;28;20045;-75
2023/05/10 05:32:18;;;;;;;1999.90;999.90;;;13.30;99.90;;;;;;4999138;28;20047;-74
2023/05/10 05:34:46;;;;;;;1999.90;999.90;;;13.40;99.90;;;;;;4998219;28;20362;-74
2023/05/10 05:37:14;;;;;;;1999.90;999.90;;;13.40;99.90;;;;;;4998606;28;20034;-74
2023/05/10 05:39:39;;;;;;;1999.90;999.90;;;13.40;99.90;;;;;;4998378;28;20031;-73
2023/05/10 05:42:05;;;;;;;1999.90;999.90;;;13.40;99.90;;;;;;4996911;28;20473;-73
2023/05/10 05:44:31;;;;;;;1999.90;999.90;;;13.50;99.90;;;;;;5001334;28;20608;-74
2023/05/10 05:46:56;;;;;;;1999.90;999.90;;;13.70;99.90;;;;;;5009729;28;20130;-74
2023/05/10 05:49:22;;;;;;;1999.90;999.90;;;13.90;99.90;;;;;;5014818;28;20058;-76
2023/05/10 05:51:49;;;;;;;1999.90;999.90;;;14.00;99.90;;;;;;5014888;28;20070;-80
2023/05/10 05:54:15;;;;;;;1999.90;999.90;;;14.00;99.90;;;;;;5022443;28;20128;-71
2023/05/10 05:56:40;;;;;;;1999.90;999.90;;;14.20;99.90;;;;;;5023874;28;20183;-72
2023/05/10 05:59:06;;;;;;;1999.90;999.90;;;14.20;99.90;;;;;;5014322;28;20041;-73
2023/05/10 06:01:31;;;;;;;1999.90;999.90;;;14.20;99.90;;;;;;5004410;28;20113;-74
2023/05/10 06:03:57;;;;;;;1999.90;999.90;;;14.20;99.90;;;;;;4997309;28;20034;-71
2023/05/10 06:06:22;;;;;;;1999.90;999.90;;;14.20;99.90;;;;;;5000301;28;20038;-72
2023/05/10 06:08:48;;;;;;;1999.90;999.90;;;14.20;99.90;;;;;;5016489;28;20065;-71
2023/05/10 06:11:13;;;;;;;1999.90;999.90;;;14.20;99.90;;;;;;5015444;28;20433;-73
2023/05/10 06:13:39;;;;;;;1999.90;999.90;;;14.30;99.90;;;;;;5016353;28;20476;-72
2023/05/10 06:16:05;;;;;;;1999.90;999.90;;;14.40;99.90;;;;;;5016268;28;20038;-72
2023/05/10 06:18:31;;;;;;;1999.90;999.90;;;14.40;99.90;;;;;;5016762;28;20560;-75
2023/05/10 06:20:57;;;;;;;1999.90;999.90;;;14.60;99.90;;;;;;5016949;28;20117;-72
2023/05/10 06:23:22;;;;;;;1999.90;999.90;;;14.70;99.90;;;;;;5001246;28;20035;-72
2023/05/10 06:25:48;;;;;;;1999.90;999.90;;;14.80;99.90;;;;;;5016590;28;20042;-73
2023/05/10 06:28:13;;;;;;;1999.90;999.90;;;14.90;99.90;;;;;;5016317;28;20062;-72
2023/05/10 06:30:39;;;;;;;1999.90;999.90;;;15.00;99.90;;;;;;5030313;28;20041;-72
2023/05/10 06:33:05;;;;;;;1999.90;999.90;;;15.10;99.90;;;;;;5014134;28;20035;-73
2023/05/10 06:35:33;;;;;;;1999.90;999.90;;;15.10;99.90;;;;;;5016291;28;20043;-70
2023/05/10 06:37:59;;;;;;;1999.90;999.90;;;15.20;99.90;;;;;;5015124;28;20039;-71
2023/05/10 06:40:24;;;;;;;1999.90;999.90;;;15.10;99.90;;;;;;5016504;28;20034;-73
2023/05/10 06:42:50;;;;;;;1999.90;999.90;;;15.20;99.90;;;;;;5024042;28;20395;-72
2023/05/10 06:45:16;;;;;;;1999.90;999.90;;;15.30;99.90;;;;;;5035949;28;20551;-72
2023/05/10 06:47:41;;;;;;;1999.90;999.90;;;15.30;99.90;;;;;;5036298;28;20476;-73
2023/05/10 06:50:08;;;;;;;1999.90;999.90;;;15.30;99.90;;;;;;5035634;28;20042;-74
2023/05/10 06:52:34;;;;;;;1999.90;999.90;;;15.20;99.90;;;;;;5023979;28;20041;-73
2023/05/10 06:55:00;;;;;;;1999.90;999.90;;;15.00;99.90;;;;;;5016253;28;20158;-73
2023/05/10 06:57:25;;;;;;;1999.90;999.90;;;15.00;99.90;;;;;;5016526;28;20027;-77
2023/05/10 06:59:52;;;;;;;1999.90;999.90;;;14.90;99.90;;;;;;5019620;28;20047;-73
2023/05/10 07:02:17;;;;;;;1999.90;999.90;;;15.00;99.90;;;;;;5003971;28;20034;-74
2023/05/10 07:04:43;;;;;;;1999.90;999.90;;;15.00;99.90;;;;;;5015801;28;20038;-74
2023/05/10 07:07:08;;;;;;;1999.90;999.90;;;15.00;99.90;;;;;;5016114;28;20116;-73
2023/05/10 07:09:34;;;;;;;1999.90;999.90;;;15.20;99.90;;;;;;5016577;28;20085;-74
2023/05/10 07:11:59;;;;;;;1999.90;999.90;;;15.10;99.90;;;;;;5031069;28;20049;-74
2023/05/10 07:14:25;;;;;;;1999.90;999.90;;;15.30;99.90;;;;;;5015482;28;20046;-74
2023/05/10 07:16:50;;;;;;;1999.90;999.90;;;15.30;99.90;;;;;;5014451;28;20037;-74
2023/05/10 07:19:16;;;;;;;1999.90;999.90;;;15.40;99.90;;;;;;5014274;28;20552;-74
2023/05/10 07:21:43;;;;;;;1999.90;999.90;;;15.20;99.90;;;;;;5015857;28;20042;-74
2023/05/10 07:24:08;;;;;;;1999.90;999.90;;;15.20;99.90;;;;;;5015734;28;20032;-73
2023/05/10 07:26:34;;;;;;;1999.90;999.90;;;15.30;99.90;;;;;;5015668;28;20048;-73
2023/05/10 07:29:00;;;;;;;1999.90;999.90;;;15.30;99.90;;;;;;5037558;22;20110;-80
2023/05/10 07:31:25;;;;;;;1999.90;999.90;;;15.30;99.90;;;;;;4997976;28;20073;-81
2023/05/10 07:33:51;;;;;;;1999.90;999.90;;;15.30;99.90;;;;;;5010103;28;20045;-81
2023/05/10 07:36:16;;;;;;;1999.90;999.90;;;15.40;99.90;;;;;;4998836;28;20042;-80
2023/05/10 07:38:42;;;;;;;1999.90;999.90;;;15.40;99.90;;;;;;5016143;28;20038;-81
2023/05/10 07:41:07;;;;;;;1999.90;999.90;;;15.50;99.90;;;;;;4998712;28;20038;-82
2023/05/10 07:43:33;;;;;;;1999.90;999.90;;;15.30;99.90;;;;;;4983008;28;20035;-81
2023/05/10 07:45:59;;;;;;;1999.90;999.90;;;15.40;99.90;;;;;;4996542;28;20088;-82
2023/05/10 07:48:25;;;;;;;1999.90;999.90;;;15.50;99.90;;;;;;4998327;28;20530;-82
2023/05/10 07:50:51;;;;;;;1999.90;999.90;;;15.50;99.90;;;;;;5015785;28;20514;-82
2023/05/10 07:53:18;;;;;;;1999.90;999.90;;;15.40;99.90;;;;;;4998190;28;20034;-82
2023/05/10 07:55:44;;;;;;;1999.90;999.90;;;15.60;99.90;;;;;;4997821;28;20049;-82
2023/05/10 07:58:10;;;;;;;1999.90;999.90;;;15.50;99.90;;;;;;5016259;28;20512;-82
2023/05/10 08:00:39;;;;;;;1999.90;999.90;;;15.40;99.90;;;;;;4996987;28;20054;-82
2023/05/10 08:03:04;;;;;;;1999.90;999.90;;;15.40;99.90;;;;;;4997372;28;20030;-81
2023/05/10 08:05:30;;;;;;;1999.90;999.90;;;15.70;99.90;;;;;;4997006;28;20034;-81
2023/05/10 08:07:55;;;;;;;1999.90;999.90;;;15.90;99.90;;;;;;4998079;28;20038;-81
2023/05/10 08:10:21;;;;;;;1999.90;999.90;;;16.00;99.90;;;;;;5017426;28;20042;-81
2023/05/10 08:12:46;;;;;;;1999.90;999.90;;;16.20;99.90;;;;;;5015730;28;20117;-81
2023/05/10 08:15:12;;;;;;;1999.90;999.90;;;16.30;99.90;;;;;;5015169;28;20061;-81
2023/05/10 08:17:37;;;;;;;1999.90;999.90;;;16.30;99.90;;;;;;4997727;28;20030;-83
2023/05/10 08:20:03;;;;;;;1999.90;999.90;;;16.40;99.90;;;;;;5015589;28;20046;-82
2023/05/10 08:22:28;;;;;;;1999.90;999.90;;;16.30;99.90;;;;;;4986298;28;20075;-81
2023/05/10 08:24:54;;;;;;;1999.90;999.90;;;16.20;99.90;;;;;;4978378;28;20046;-82
2023/05/10 08:27:19;;;;;;;1999.90;999.90;;;16.10;99.90;;;;;;4986592;28;20043;-81
2023/05/10 08:29:45;;;;;;;1999.90;999.90;;;16.10;99.90;;;;;;4983831;28;20067;-81
2023/05/10 08:32:11;;;;;;;1999.90;999.90;;;16.40;99.90;;;;;;4978124;28;20045;-82
2023/05/10 08:34:36;;;;;;;1999.90;999.90;;;16.50;99.90;;;;;;4995810;28;20035;-81
2023/05/10 08:37:02;;;;;;;1999.90;999.90;;;16.50;99.90;;;;;;4977919;28;20436;-81
2023/05/10 08:39:27;;;;;;;1999.90;999.90;;;16.50;99.90;;;;;;4982508;28;20089;-81
2023/05/10 08:41:58;;;;;;;1999.90;999.90;;;16.30;99.90;;;;;;4998061;28;20042;-79
2023/05/10 08:44:24;;;;;;;1999.90;999.90;;;16.20;99.90;;;;;;4998183;28;20035;-80
2023/05/10 08:46:53;;;;;;;1999.90;999.90;;;16.00;99.90;;;;;;4999850;28;20039;-81
2023/05/10 08:49:20;;;;;;;1999.90;999.90;;;16.20;99.90;;;;;;4996305;28;20038;-80
2023/05/10 08:51:51;;;;;;;1999.90;999.90;;;16.30;99.90;;;;;;4996297;28;20834;-81
2023/05/10 08:54:17;;;;;;;1999.90;999.90;;;16.40;99.90;;;;;;4988670;28;20035;-81
2023/05/10 08:56:43;;;;;;;1999.90;999.90;;;16.40;99.90;;;;;;4997868;28;20042;-82
2023/05/10 08:59:08;;;;;;;1999.90;999.90;;;16.60;99.90;;;;;;4979153;28;20035;-81
2023/05/10 09:01:36;;;;;;;1999.90;999.90;;;16.60;99.90;;;;;;4996437;28;20043;-81
2023/05/10 09:04:04;;;;;;;1999.90;999.90;;;16.20;99.90;;;;;;4996577;28;20039;-80
2023/05/10 09:06:29;;;;;;;1999.90;999.90;;;16.20;99.90;;;;;;4978885;28;20477;-83
2023/05/10 09:08:55;;;;;;;1999.90;999.90;;;16.30;99.90;;;;;;4995910;28;20038;-81
2023/05/10 09:11:21;;;;;;;1999.90;999.90;;;16.40;99.90;;;;;;4996203;28;20043;-81
2023/05/10 09:13:50;;;;;;;1999.90;999.90;;;16.80;99.90;;;;;;4979429;28;20095;-81
2023/05/10 09:16:16;;;;;;;1999.90;999.90;;;17.10;99.90;;;;;;4979104;28;20035;-81
2023/05/10 09:18:41;;;;;;;1999.90;999.90;;;17.30;99.90;;;;;;4978147;28;20098;-81
2023/05/10 09:21:07;;;;;;;1999.90;999.90;;;17.30;99.90;;;;;;4997151;28;20080;-81
2023/05/10 09:23:33;;;;;;;1999.90;999.90;;;17.60;99.90;;;;;;4996492;28;20046;-81
2023/05/10 09:26:04;;;;;;;1999.90;999.90;;;18.00;99.90;;;;;;4977079;28;20377;-81
2023/05/10 09:28:55;;;;;;;1999.90;999.90;;;18.10;99.90;;;;;;4976678;28;20050;-81
2023/05/10 09:31:20;;;;;;;1999.90;999.90;;;18.00;99.90;;;;;;4988454;28;20051;-81
2023/05/10 09:33:47;;;;;;;1999.90;999.90;;;18.30;99.90;;;;;;4978612;28;20031;-82
2023/05/10 09:36:13;;;;;;;1999.90;999.90;;;18.30;99.90;;;;;;4995563;28;20369;-82
2023/05/10 09:38:47;;;;;;;1999.90;999.90;;;18.30;99.90;;;;;;4978174;28;20088;-81
2023/05/10 09:41:21;;;;;;;1999.90;999.90;;;18.30;99.90;;;;;;4997887;28;20066;-82
2023/05/10 09:43:47;;;;;;;1999.90;999.90;;;18.30;99.90;;;;;;4997396;28;20038;-82
2023/05/10 09:46:14;;;;;;;1999.90;999.90;;;18.50;99.90;;;;;;5015393;28;20038;-82
2023/05/10 09:48:47;;;;;;;1999.90;999.90;;;18.40;99.90;;;;;;4979456;28;20031;-81
2023/05/10 09:51:26;;;;;;;1999.90;999.90;;;18.40;99.90;;;;;;4988069;28;20046;-81
2023/05/10 09:54:15;;;;;;;1999.90;999.90;;;18.40;99.90;;;;;;5000242;28;20026;-83
2023/05/10 09:56:41;;;;;;;1999.90;999.90;;;18.00;99.90;;;;;;5003767;28;20039;-82
2023/05/10 09:59:12;;;;;;;1999.90;999.90;;;18.10;99.90;;;;;;4980927;28;20859;-81
2023/05/10 10:01:38;;;;;;;1999.90;999.90;;;18.20;99.90;;;;;;4980477;28;20035;-82
2023/05/10 10:04:06;;;;;;;1999.90;999.90;;;18.50;99.90;;;;;;4980208;28;20062;-82
2023/05/10 10:06:36;;;;;;;1999.90;999.90;;;18.50;99.90;;;;;;4981259;28;20808;-83
2023/05/10 10:09:02;;;;;;;1999.90;999.90;;;18.70;99.90;;;;;;4978817;28;20036;-82
2023/05/10 10:11:28;;;;;;;1999.90;999.90;;;18.70;99.90;;;;;;4978851;28;20050;-82
2023/05/10 10:13:54;;;;;;;1999.90;999.90;;;18.70;99.90;;;;;;4978916;28;20090;-82
2023/05/10 10:16:21;;;;;;;1999.90;999.90;;;19.00;99.90;;;;;;4978439;28;20094;-82
2023/05/10 10:18:47;;;;;;;1999.90;999.90;;;19.10;99.90;;;;;;4998173;28;20061;-82
2023/05/10 10:21:14;;;;;;;1999.90;999.90;;;19.30;99.90;;;;;;4991883;28;20039;-82
2023/05/10 10:23:40;;;;;;;1999.90;999.90;;;19.50;99.90;;;;;;4979981;28;20058;-82
2023/05/10 10:26:06;;;;;;;1999.90;999.90;;;19.80;99.90;;;;;;4979798;28;20067;-81
2023/05/10 10:28:45;;;;;;;1999.90;999.90;;;19.80;99.90;;;;;;4979509;28;20042;-82
2023/05/10 10:31:40;;;;;;;1999.90;999.90;;;19.70;99.90;;;;;;4969866;28;20053;-82
2023/05/10 10:34:08;;;;;;;1999.90;999.90;;;19.70;99.90;;;;;;4979170;28;20062;-81
2023/05/10 10:36:44;;;;;;;1999.90;999.90;;;19.50;99.90;;;;;;4993322;28;20082;-79
2023/05/10 10:39:10;;;;;;;1999.90;999.90;;;19.10;99.90;;;;;;4978898;28;20074;-80
2023/05/10 10:41:42;;;;;;;1999.90;999.90;;;19.00;99.90;;;;;;4979058;28;20053;-81
2023/05/10 10:44:24;;;;;;;1999.90;999.90;;;19.00;99.90;;;;;;4997149;28;20026;-80
2023/05/10 10:47:09;;;;;;;1999.90;999.90;;;19.10;99.90;;;;;;4983193;28;20031;-82
2023/05/10 10:49:41;;;;;;;1999.90;999.90;;;19.20;99.90;;;;;;4997914;28;20475;-84
2023/05/10 10:52:33;;;;;;;1999.90;999.90;;;19.30;99.90;;;;;;4979350;28;20039;-83
2023/05/10 10:55:14;;;;;;;1999.90;999.90;;;19.20;99.90;;;;;;4993852;28;20037;-83
2023/05/10 10:57:40;;;;;;;1999.90;999.90;;;19.30;99.90;;;;;;4998837;28;20539;-81
2023/05/10 11:00:26;;;;;;;1999.90;999.90;;;19.10;99.90;;;;;;5016260;28;20036;-84
2023/05/10 11:02:54;;;;;;;1999.90;999.90;;;19.50;99.90;;;;;;4999531;28;20046;-84
2023/05/10 11:05:24;;;;;;;1999.90;999.90;;;19.90;99.90;;;;;;4999210;28;20117;-84
2023/05/10 11:07:57;;;;;;;1999.90;999.90;;;19.60;99.90;;;;;;4984066;28;20042;-86
2023/05/10 11:10:24;;;;;;;1999.90;999.90;;;20.00;99.90;;;;;;4979521;28;20089;-84
2023/05/10 11:13:04;;;;;;;1999.90;999.90;;;20.20;99.90;;;;;;4980158;28;20035;-83
2023/05/10 11:15:33;;;;;;;1999.90;999.90;;;19.80;99.90;;;;;;4979913;28;20035;-85
2023/05/10 11:17:59;;;;;;;1999.90;999.90;;;19.70;99.90;;;;;;4996798;28;20548;-82
2023/05/10 11:20:38;;;;;;;1999.90;999.90;;;20.10;99.90;;;;;;4980015;28;20494;-82
2023/05/10 11:23:15;;;;;;;1999.90;999.90;;;20.50;99.90;;;;;;4985225;28;20125;-82
2023/05/10 11:25:45;;;;;;;1999.90;999.90;;;20.20;99.90;;;;;;4998267;28;20121;-83
2023/05/10 11:28:14;;;;;;;1999.90;999.90;;;20.40;99.90;;;;;;5005225;28;20035;-82
2023/05/10 11:30:41;;;;;;;1999.90;999.90;;;20.30;99.90;;;;;;4979341;28;20043;-83
2023/05/10 11:33:08;;;;;;;1999.90;999.90;;;20.20;99.90;;;;;;4983446;28;20038;-83
2023/05/10 11:35:38;;;;;;;1999.90;999.90;;;20.50;99.90;;;;;;4996282;28;20030;-85
2023/05/10 11:38:09;;;;;;;1999.90;999.90;;;21.10;99.90;;;;;;4978523;28;20520;-82
2023/05/10 11:40:35;;;;;;;1999.90;999.90;;;20.90;99.90;;;;;;4978891;28;20086;-85
2023/05/10 11:43:01;;;;;;;1999.90;999.90;;;21.00;99.90;;;;;;4978866;28;20035;-83
2023/05/10 11:45:28;;;;;;;1999.90;999.90;;;20.50;99.90;;;;;;4982733;28;20093;-83
2023/05/10 11:47:54;;;;;;;1999.90;999.90;;;20.40;99.90;;;;;;4995990;28;20034;-84
2023/05/10 11:50:20;;;;;;;1999.90;999.90;;;20.30;99.90;;;;;;4978501;28;20120;-82
2023/05/10 11:52:51;;;;;;;1999.90;999.90;;;19.70;98.90;;;;;;4978663;28;20042;-83
2023/05/10 11:55:16;;;;;;;1999.90;999.90;;;19.00;98.40;;;;;;4978269;28;20042;-83
2023/05/10 11:57:44;;;;;;;1999.90;999.90;;;18.80;99.90;;;;;;4995024;28;20035;-81
2023/05/10 12:00:10;;;;;;;1999.90;999.90;;;18.60;99.90;;;;;;4978298;28;20034;-82
2023/05/10 12:02:36;;;;;;;1999.90;999.90;;;18.70;99.90;;;;;;4994825;28;20026;-81